Terminal Aerodrome Forecast
Issued by NWS Cleveland, OH

Home | Current Version | Previous Version | Text Only | Print | Product List | Glossary Off
Versions: 1 2 3 4 5 6 7 8 9 10 11 12 13 14 15 16

000
FTUS41 KCLE 081100
TAFCAK
TAF
KCAK 081120Z 0812/0912 21008KT 5SM BR BKN008 OVC012
     FM081530 22014KT 4SM -TSRA BR SCT008 OVC012CB
      TEMPO 0816/0818 2SM -TSRA BR OVC008CB
     FM081800 23014G22KT P6SM OVC035
     FM082200 25008KT P6SM VCTS SCT025 OVC035CB
     FM090200 26008KT P6SM SCT100 BKN250=

USA.gov is the U.S. government's official web portal to all federal, state and local government web resources and services.